sensor_id;sensor_type;location;lat;lon;timestamp;P1;durP1;ratioP1;P2;durP2;ratioP2
80508;SDS011;69838;52.602;13.434;2024-01-11T00:00:13;46.17;;;20.75;;
80508;SDS011;69838;52.602;13.434;2024-01-11T00:01:01;51.55;;;23.50;;
80508;SDS011;69838;52.602;13.434;2024-01-11T00:01:46;41.63;;;17.17;;
80508;SDS011;69838;52.602;13.434;2024-01-11T00:02:32;37.13;;;14.98;;
80508;SDS011;69838;52.602;13.434;2024-01-11T00:03:19;36.63;;;16.25;;
80508;SDS011;69838;52.602;13.434;2024-01-11T00:04:04;30.38;;;14.98;;
80508;SDS011;69838;52.602;13.434;2024-01-11T00:04:50;36.40;;;15.63;;
80508;SDS011;69838;52.602;13.434;2024-01-11T00:05:36;27.25;;;13.52;;
80508;SDS011;69838;52.602;13.434;2024-01-11T00:06:21;31.73;;;14.48;;
80508;SDS011;69838;52.602;13.434;2024-01-11T00:07:07;31.65;;;14.25;;
80508;SDS011;69838;52.602;13.434;2024-01-11T00:07:53;28.05;;;13.48;;
80508;SDS011;69838;52.602;13.434;2024-01-11T00:08:39;34.08;;;14.18;;
80508;SDS011;69838;52.602;13.434;2024-01-11T00:09:24;25.70;;;13.43;;
80508;SDS011;69838;52.602;13.434;2024-01-11T00:10:11;32.85;;;14.80;;
80508;SDS011;69838;52.602;13.434;2024-01-11T00:10:57;31.50;;;14.93;;
80508;SDS011;69838;52.602;13.434;2024-01-11T00:11:42;30.48;;;13.82;;
80508;SDS011;69838;52.602;13.434;2024-01-11T00:12:28;34.33;;;16.27;;
80508;SDS011;69838;52.602;13.434;2024-01-11T00:13:14;32.80;;;16.05;;
80508;SDS011;69838;52.602;13.434;2024-01-11T00:14:01;25.88;;;13.95;;
80508;SDS011;69838;52.602;13.434;2024-01-11T00:14:48;36.65;;;17.08;;
80508;SDS011;69838;52.602;13.434;2024-01-11T00:15:34;28.55;;;14.63;;
80508;SDS011;69838;52.602;13.434;2024-01-11T00:16:19;30.77;;;14.98;;
80508;SDS011;69838;52.602;13.434;2024-01-11T00:17:05;31.25;;;14.10;;
80508;SDS011;69838;52.602;13.434;2024-01-11T00:17:51;29.77;;;14.02;;
80508;SDS011;69838;52.602;13.434;2024-01-11T00:18:36;28.83;;;12.90;;
80508;SDS011;69838;52.602;13.434;2024-01-11T00:19:23;24.77;;;11.82;;
80508;SDS011;69838;52.602;13.434;2024-01-11T00:20:09;30.85;;;14.75;;
80508;SDS011;69838;52.602;13.434;2024-01-11T00:20:55;24.30;;;12.65;;
80508;SDS011;69838;52.602;13.434;2024-01-11T00:21:42;29.58;;;14.65;;
80508;SDS011;69838;52.602;13.434;2024-01-11T00:22:27;24.70;;;12.40;;
80508;SDS011;69838;52.602;13.434;2024-01-11T00:23:13;33.70;;;14.73;;
80508;SDS011;69838;52.602;13.434;2024-01-11T00:23:59;29.60;;;13.15;;
80508;SDS011;69838;52.602;13.434;2024-01-11T00:24:44;24.88;;;12.88;;
80508;SDS011;69838;52.602;13.434;2024-01-11T00:25:30;28.33;;;14.05;;
80508;SDS011;69838;52.602;13.434;2024-01-11T00:26:16;26.48;;;12.95;;
80508;SDS011;69838;52.602;13.434;2024-01-11T00:27:02;32.00;;;12.63;;
80508;SDS011;69838;52.602;13.434;2024-01-11T00:27:47;26.23;;;12.20;;
80508;SDS011;69838;52.602;13.434;2024-01-11T00:28:34;29.58;;;12.32;;
80508;SDS011;69838;52.602;13.434;2024-01-11T00:29:20;25.70;;;12.20;;
80508;SDS011;69838;52.602;13.434;2024-01-11T00:30:06;28.45;;;13.75;;
80508;SDS011;69838;52.602;13.434;2024-01-11T00:30:53;27.35;;;13.10;;
80508;SDS011;69838;52.602;13.434;2024-01-11T00:31:39;22.77;;;13.13;;
80508;SDS011;69838;52.602;13.434;2024-01-11T00:32:25;28.83;;;14.18;;
80508;SDS011;69838;52.602;13.434;2024-01-11T00:33:11;22.52;;;11.68;;
80508;SDS011;69838;52.602;13.434;2024-01-11T00:33:56;25.17;;;13.77;;
80508;SDS011;69838;52.602;13.434;2024-01-11T00:34:43;24.95;;;12.60;;
80508;SDS011;69838;52.602;13.434;2024-01-11T00:35:28;26.92;;;13.43;;
80508;SDS011;69838;52.602;13.434;2024-01-11T00:36:17;26.67;;;13.00;;
80508;SDS011;69838;52.602;13.434;2024-01-11T00:37:04;30.52;;;16.75;;
80508;SDS011;69838;52.602;13.434;2024-01-11T00:37:49;29.83;;;12.35;;
80508;SDS011;69838;52.602;13.434;2024-01-11T00:38:35;27.60;;;14.55;;
80508;SDS011;69838;52.602;13.434;2024-01-11T00:39:22;31.02;;;12.93;;
80508;SDS011;69838;52.602;13.434;2024-01-11T00:40:07;30.65;;;15.63;;
80508;SDS011;69838;52.602;13.434;2024-01-11T00:40:53;32.00;;;15.23;;
80508;SDS011;69838;52.602;13.434;2024-01-11T00:41:40;26.90;;;13.43;;
80508;SDS011;69838;52.602;13.434;2024-01-11T00:42:25;27.20;;;14.45;;
80508;SDS011;69838;52.602;13.434;2024-01-11T00:43:11;31.90;;;13.90;;
80508;SDS011;69838;52.602;13.434;2024-01-11T00:43:57;35.28;;;14.55;;
80508;SDS011;69838;52.602;13.434;2024-01-11T00:44:44;31.30;;;14.40;;
80508;SDS011;69838;52.602;13.434;2024-01-11T00:45:30;26.15;;;13.25;;
80508;SDS011;69838;52.602;13.434;2024-01-11T00:46:16;29.80;;;14.32;;
80508;SDS011;69838;52.602;13.434;2024-01-11T00:47:02;28.08;;;13.75;;
80508;SDS011;69838;52.602;13.434;2024-01-11T00:47:47;26.10;;;12.50;;
80508;SDS011;69838;52.602;13.434;2024-01-11T00:48:34;25.90;;;13.20;;
80508;SDS011;69838;52.602;13.434;2024-01-11T00:49:19;29.73;;;12.73;;
80508;SDS011;69838;52.602;13.434;2024-01-11T00:50:05;31.55;;;13.88;;
80508;SDS011;69838;52.602;13.434;2024-01-11T00:50:52;27.50;;;13.98;;
80508;SDS011;69838;52.602;13.434;2024-01-11T00:51:37;25.67;;;13.07;;
80508;SDS011;69838;52.602;13.434;2024-01-11T00:52:23;26.40;;;12.77;;
80508;SDS011;69838;52.602;13.434;2024-01-11T00:53:09;24.63;;;11.60;;
80508;SDS011;69838;52.602;13.434;2024-01-11T00:53:56;25.55;;;11.52;;
80508;SDS011;69838;52.602;13.434;2024-01-11T00:54:41;19.02;;;9.27;;
80508;SDS011;69838;52.602;13.434;2024-01-11T00:55:27;26.58;;;13.40;;
80508;SDS011;69838;52.602;13.434;2024-01-11T00:56:16;22.35;;;10.82;;
80508;SDS011;69838;52.602;13.434;2024-01-11T00:57:02;22.00;;;12.25;;
80508;SDS011;69838;52.602;13.434;2024-01-11T00:57:48;23.30;;;11.60;;
80508;SDS011;69838;52.602;13.434;2024-01-11T00:58:34;22.33;;;11.30;;
80508;SDS011;69838;52.602;13.434;2024-01-11T00:59:19;22.45;;;11.27;;
80508;SDS011;69838;52.602;13.434;2024-01-11T01:00:08;20.80;;;12.75;;
80508;SDS011;69838;52.602;13.434;2024-01-11T01:00:55;21.73;;;9.70;;
80508;SDS011;69838;52.602;13.434;2024-01-11T01:01:46;24.58;;;11.00;;
80508;SDS011;69838;52.602;13.434;2024-01-11T01:02:32;20.42;;;11.00;;
80508;SDS011;69838;52.602;13.434;2024-01-11T01:03:18;20.70;;;10.82;;
80508;SDS011;69838;52.602;13.434;2024-01-11T01:04:04;18.25;;;10.75;;
80508;SDS011;69838;52.602;13.434;2024-01-11T01:04:50;19.30;;;11.80;;
80508;SDS011;69838;52.602;13.434;2024-01-11T01:05:36;24.02;;;10.10;;
80508;SDS011;69838;52.602;13.434;2024-01-11T01:06:22;23.50;;;10.70;;
80508;SDS011;69838;52.602;13.434;2024-01-11T01:07:07;20.73;;;10.70;;
80508;SDS011;69838;52.602;13.434;2024-01-11T01:07:53;22.33;;;13.30;;
80508;SDS011;69838;52.602;13.434;2024-01-11T01:08:39;18.73;;;9.95;;
80508;SDS011;69838;52.602;13.434;2024-01-11T01:09:24;23.60;;;9.60;;
80508;SDS011;69838;52.602;13.434;2024-01-11T01:10:11;20.80;;;9.82;;
80508;SDS011;69838;52.602;13.434;2024-01-11T01:10:56;22.45;;;11.45;;
80508;SDS011;69838;52.602;13.434;2024-01-11T01:11:42;21.10;;;10.63;;
80508;SDS011;69838;52.602;13.434;2024-01-11T01:12:28;24.00;;;10.98;;
80508;SDS011;69838;52.602;13.434;2024-01-11T01:13:13;22.50;;;11.90;;
80508;SDS011;69838;52.602;13.434;2024-01-11T01:13:59;18.58;;;10.43;;
80508;SDS011;69838;52.602;13.434;2024-01-11T01:14:45;22.25;;;13.18;;
80508;SDS011;69838;52.602;13.434;2024-01-11T01:15:32;21.23;;;10.75;;
80508;SDS011;69838;52.602;13.434;2024-01-11T01:16:18;19.45;;;11.05;;
80508;SDS011;69838;52.602;13.434;2024-01-11T01:17:04;21.80;;;10.68;;
80508;SDS011;69838;52.602;13.434;2024-01-11T01:17:50;19.23;;;9.98;;
80508;SDS011;69838;52.602;13.434;2024-01-11T01:18:35;19.33;;;9.60;;
80508;SDS011;69838;52.602;13.434;2024-01-11T01:19:22;17.17;;;9.82;;
80508;SDS011;69838;52.602;13.434;2024-01-11T01:20:08;21.58;;;9.90;;
80508;SDS011;69838;52.602;13.434;2024-01-11T01:20:55;20.80;;;10.43;;
80508;SDS011;69838;52.602;13.434;2024-01-11T01:21:41;20.75;;;11.40;;
80508;SDS011;69838;52.602;13.434;2024-01-11T01:22:26;20.02;;;10.95;;
80508;SDS011;69838;52.602;13.434;2024-01-11T01:23:12;19.77;;;8.98;;
80508;SDS011;69838;52.602;13.434;2024-01-11T01:23:58;18.13;;;8.65;;
80508;SDS011;69838;52.602;13.434;2024-01-11T01:24:43;22.80;;;12.02;;
80508;SDS011;69838;52.602;13.434;2024-01-11T01:25:30;19.40;;;10.88;;
80508;SDS011;69838;52.602;13.434;2024-01-11T01:26:15;20.80;;;13.05;;
80508;SDS011;69838;52.602;13.434;2024-01-11T01:27:01;18.63;;;10.30;;
80508;SDS011;69838;52.602;13.434;2024-01-11T01:27:47;17.83;;;10.27;;
80508;SDS011;69838;52.602;13.434;2024-01-11T01:28:33;19.85;;;10.30;;
80508;SDS011;69838;52.602;13.434;2024-01-11T01:29:18;19.02;;;9.88;;
80508;SDS011;69838;52.602;13.434;2024-01-11T01:30:05;17.08;;;9.90;;
80508;SDS011;69838;52.602;13.434;2024-01-11T01:30:53;16.92;;;11.68;;
80508;SDS011;69838;52.602;13.434;2024-01-11T01:31:39;24.63;;;11.70;;
80508;SDS011;69838;52.602;13.434;2024-01-11T01:32:25;18.80;;;11.32;;
80508;SDS011;69838;52.602;13.434;2024-01-11T01:33:10;19.83;;;10.65;;
80508;SDS011;69838;52.602;13.434;2024-01-11T01:33:56;18.98;;;10.32;;
80508;SDS011;69838;52.602;13.434;2024-01-11T01:34:42;22.17;;;11.80;;
80508;SDS011;69838;52.602;13.434;2024-01-11T01:35:27;21.63;;;11.13;;
80508;SDS011;69838;52.602;13.434;2024-01-11T01:36:14;20.48;;;12.00;;
80508;SDS011;69838;52.602;13.434;2024-01-11T01:36:59;19.45;;;10.23;;
80508;SDS011;69838;52.602;13.434;2024-01-11T01:37:44;19.70;;;11.60;;
80508;SDS011;69838;52.602;13.434;2024-01-11T01:38:30;22.27;;;10.70;;
80508;SDS011;69838;52.602;13.434;2024-01-11T01:39:16;20.35;;;11.65;;
80508;SDS011;69838;52.602;13.434;2024-01-11T01:40:02;22.20;;;12.40;;
80508;SDS011;69838;52.602;13.434;2024-01-11T01:40:48;26.30;;;13.48;;
80508;SDS011;69838;52.602;13.434;2024-01-11T01:41:34;26.33;;;12.77;;
80508;SDS011;69838;52.602;13.434;2024-01-11T01:42:20;24.55;;;13.02;;
80508;SDS011;69838;52.602;13.434;2024-01-11T01:43:06;20.33;;;10.80;;
80508;SDS011;69838;52.602;13.434;2024-01-11T01:43:53;24.92;;;12.90;;
80508;SDS011;69838;52.602;13.434;2024-01-11T01:44:39;26.08;;;13.73;;
80508;SDS011;69838;52.602;13.434;2024-01-11T01:45:26;22.55;;;11.27;;
80508;SDS011;69838;52.602;13.434;2024-01-11T01:46:14;19.83;;;10.63;;
80508;SDS011;69838;52.602;13.434;2024-01-11T01:47:07;26.00;;;11.60;;
80508;SDS011;69838;52.602;13.434;2024-01-11T01:47:53;21.00;;;10.80;;
80508;SDS011;69838;52.602;13.434;2024-01-11T01:48:40;24.38;;;11.35;;
80508;SDS011;69838;52.602;13.434;2024-01-11T01:49:27;24.42;;;11.88;;
80508;SDS011;69838;52.602;13.434;2024-01-11T01:50:12;23.35;;;11.77;;
80508;SDS011;69838;52.602;13.434;2024-01-11T01:50:59;21.52;;;9.82;;
80508;SDS011;69838;52.602;13.434;2024-01-11T01:51:44;23.88;;;11.63;;
80508;SDS011;69838;52.602;13.434;2024-01-11T01:52:30;25.45;;;10.43;;
80508;SDS011;69838;52.602;13.434;2024-01-11T01:53:19;22.83;;;12.15;;
80508;SDS011;69838;52.602;13.434;2024-01-11T01:54:06;22.58;;;11.13;;
80508;SDS011;69838;52.602;13.434;2024-01-11T01:54:53;21.52;;;12.02;;
80508;SDS011;69838;52.602;13.434;2024-01-11T01:55:39;22.60;;;11.43;;
80508;SDS011;69838;52.602;13.434;2024-01-11T01:56:25;20.67;;;11.13;;
80508;SDS011;69838;52.602;13.434;2024-01-11T01:57:11;22.45;;;10.40;;
80508;SDS011;69838;52.602;13.434;2024-01-11T01:57:58;20.23;;;9.65;;
80508;SDS011;69838;52.602;13.434;2024-01-11T01:58:45;19.88;;;10.27;;
80508;SDS011;69838;52.602;13.434;2024-01-11T01:59:31;25.70;;;11.40;;
80508;SDS011;69838;52.602;13.434;2024-01-11T02:00:17;21.98;;;9.77;;
80508;SDS011;69838;52.602;13.434;2024-01-11T02:01:03;28.25;;;10.80;;
80508;SDS011;69838;52.602;13.434;2024-01-11T02:01:51;20.55;;;8.50;;
80508;SDS011;69838;52.602;13.434;2024-01-11T02:02:37;18.95;;;8.13;;
80508;SDS011;69838;52.602;13.434;2024-01-11T02:03:25;18.83;;;10.07;;
80508;SDS011;69838;52.602;13.434;2024-01-11T02:04:12;20.67;;;11.18;;
80508;SDS011;69838;52.602;13.434;2024-01-11T02:04:59;23.65;;;11.43;;
80508;SDS011;69838;52.602;13.434;2024-01-11T02:05:47;20.90;;;10.48;;
80508;SDS011;69838;52.602;13.434;2024-01-11T02:06:32;22.08;;;11.18;;
80508;SDS011;69838;52.602;13.434;2024-01-11T02:07:19;20.00;;;10.43;;
80508;SDS011;69838;52.602;13.434;2024-01-11T02:08:06;23.05;;;9.35;;
80508;SDS011;69838;52.602;13.434;2024-01-11T02:08:53;23.35;;;11.35;;
80508;SDS011;69838;52.602;13.434;2024-01-11T02:09:41;24.55;;;11.05;;
80508;SDS011;69838;52.602;13.434;2024-01-11T02:10:29;21.13;;;11.43;;
80508;SDS011;69838;52.602;13.434;2024-01-11T02:11:18;22.38;;;10.80;;
80508;SDS011;69838;52.602;13.434;2024-01-11T02:12:05;19.45;;;9.55;;
80508;SDS011;69838;52.602;13.434;2024-01-11T02:12:55;21.63;;;10.90;;
80508;SDS011;69838;52.602;13.434;2024-01-11T02:13:41;22.52;;;9.95;;
80508;SDS011;69838;52.602;13.434;2024-01-11T02:14:26;23.42;;;12.82;;
80508;SDS011;69838;52.602;13.434;2024-01-11T02:15:13;22.80;;;9.90;;
80508;SDS011;69838;52.602;13.434;2024-01-11T02:15:59;25.63;;;11.95;;
80508;SDS011;69838;52.602;13.434;2024-01-11T02:16:45;26.33;;;11.60;;
80508;SDS011;69838;52.602;13.434;2024-01-11T02:17:33;26.88;;;11.35;;
80508;SDS011;69838;52.602;13.434;2024-01-11T02:18:18;22.20;;;10.50;;
80508;SDS011;69838;52.602;13.434;2024-01-11T02:19:04;21.17;;;10.45;;
80508;SDS011;69838;52.602;13.434;2024-01-11T02:19:53;22.65;;;10.00;;
80508;SDS011;69838;52.602;13.434;2024-01-11T02:20:38;23.58;;;10.52;;
80508;SDS011;69838;52.602;13.434;2024-01-11T02:21:23;24.08;;;11.18;;
80508;SDS011;69838;52.602;13.434;2024-01-11T02:22:15;22.77;;;10.70;;
80508;SDS011;69838;52.602;13.434;2024-01-11T02:23:08;23.40;;;8.70;;
80508;SDS011;69838;52.602;13.434;2024-01-11T02:24:03;24.38;;;10.57;;
80508;SDS011;69838;52.602;13.434;2024-01-11T02:24:49;26.77;;;10.73;;
80508;SDS011;69838;52.602;13.434;2024-01-11T02:25:35;26.75;;;11.40;;
80508;SDS011;69838;52.602;13.434;2024-01-11T02:26:21;29.83;;;11.88;;
80508;SDS011;69838;52.602;13.434;2024-01-11T02:27:07;26.60;;;11.30;;
80508;SDS011;69838;52.602;13.434;2024-01-11T02:27:55;25.35;;;12.10;;
80508;SDS011;69838;52.602;13.434;2024-01-11T02:28:45;23.15;;;11.27;;
80508;SDS011;69838;52.602;13.434;2024-01-11T02:29:31;25.38;;;13.38;;
80508;SDS011;69838;52.602;13.434;2024-01-11T02:30:17;26.05;;;12.57;;
80508;SDS011;69838;52.602;13.434;2024-01-11T02:31:03;24.52;;;13.50;;
80508;SDS011;69838;52.602;13.434;2024-01-11T02:31:49;23.05;;;11.10;;
80508;SDS011;69838;52.602;13.434;2024-01-11T02:32:35;23.13;;;10.93;;
80508;SDS011;69838;52.602;13.434;2024-01-11T02:33:21;25.60;;;11.27;;
80508;SDS011;69838;52.602;13.434;2024-01-11T02:34:07;24.55;;;11.27;;
80508;SDS011;69838;52.602;13.434;2024-01-11T02:34:53;23.02;;;10.15;;
80508;SDS011;69838;52.602;13.434;2024-01-11T02:35:39;19.45;;;12.07;;
80508;SDS011;69838;52.602;13.434;2024-01-11T02:36:26;25.15;;;11.90;;
80508;SDS011;69838;52.602;13.434;2024-01-11T02:37:12;24.58;;;11.23;;
80508;SDS011;69838;52.602;13.434;2024-01-11T02:37:58;22.38;;;8.93;;
80508;SDS011;69838;52.602;13.434;2024-01-11T02:38:45;23.83;;;11.73;;
80508;SDS011;69838;52.602;13.434;2024-01-11T02:39:32;24.20;;;10.65;;
80508;SDS011;69838;52.602;13.434;2024-01-11T02:40:19;25.80;;;11.45;;
80508;SDS011;69838;52.602;13.434;2024-01-11T02:41:05;25.23;;;11.55;;
80508;SDS011;69838;52.602;13.434;2024-01-11T02:41:52;26.67;;;12.02;;
80508;SDS011;69838;52.602;13.434;2024-01-11T02:42:39;25.45;;;11.70;;
80508;SDS011;69838;52.602;13.434;2024-01-11T02:43:25;23.75;;;11.13;;
80508;SDS011;69838;52.602;13.434;2024-01-11T02:44:10;22.20;;;8.77;;
80508;SDS011;69838;52.602;13.434;2024-01-11T02:44:57;24.40;;;12.20;;
80508;SDS011;69838;52.602;13.434;2024-01-11T02:45:43;27.00;;;10.63;;
80508;SDS011;69838;52.602;13.434;2024-01-11T02:46:28;24.27;;;10.77;;
80508;SDS011;69838;52.602;13.434;2024-01-11T02:47:16;24.15;;;11.85;;
80508;SDS011;69838;52.602;13.434;2024-01-11T02:48:02;23.95;;;11.70;;
80508;SDS011;69838;52.602;13.434;2024-01-11T02:48:48;24.33;;;10.05;;
80508;SDS011;69838;52.602;13.434;2024-01-11T02:49:34;24.13;;;10.75;;
80508;SDS011;69838;52.602;13.434;2024-01-11T02:50:19;24.63;;;12.02;;
80508;SDS011;69838;52.602;13.434;2024-01-11T02:51:06;21.83;;;8.95;;
80508;SDS011;69838;52.602;13.434;2024-01-11T02:51:51;26.27;;;9.95;;
80508;SDS011;69838;52.602;13.434;2024-01-11T02:52:37;22.90;;;12.65;;
80508;SDS011;69838;52.602;13.434;2024-01-11T02:53:23;26.55;;;11.25;;
80508;SDS011;69838;52.602;13.434;2024-01-11T02:54:09;28.67;;;11.27;;
80508;SDS011;69838;52.602;13.434;2024-01-11T02:54:55;24.60;;;10.80;;
80508;SDS011;69838;52.602;13.434;2024-01-11T02:55:42;21.35;;;9.80;;
80508;SDS011;69838;52.602;13.434;2024-01-11T02:56:27;19.05;;;10.27;;
80508;SDS011;69838;52.602;13.434;2024-01-11T02:57:13;16.67;;;7.68;;
80508;SDS011;69838;52.602;13.434;2024-01-11T02:57:59;24.77;;;11.32;;
80508;SDS011;69838;52.602;13.434;2024-01-11T02:58:44;21.00;;;9.50;;
80508;SDS011;69838;52.602;13.434;2024-01-11T02:59:30;19.58;;;9.55;;
80508;SDS011;69838;52.602;13.434;2024-01-11T03:00:16;19.38;;;9.73;;
80508;SDS011;69838;52.602;13.434;2024-01-11T03:01:02;21.08;;;10.38;;
80508;SDS011;69838;52.602;13.434;2024-01-11T03:01:48;26.58;;;11.88;;
80508;SDS011;69838;52.602;13.434;2024-01-11T03:02:35;25.20;;;10.63;;
80508;SDS011;69838;52.602;13.434;2024-01-11T03:03:22;22.98;;;10.38;;
80508;SDS011;69838;52.602;13.434;2024-01-11T03:04:07;21.33;;;9.73;;
80508;SDS011;69838;52.602;13.434;2024-01-11T03:04:54;22.02;;;10.38;;
80508;SDS011;69838;52.602;13.434;2024-01-11T03:05:39;23.27;;;10.23;;
80508;SDS011;69838;52.602;13.434;2024-01-11T03:06:25;22.30;;;10.07;;
80508;SDS011;69838;52.602;13.434;2024-01-11T03:07:11;23.00;;;10.25;;
80508;SDS011;69838;52.602;13.434;2024-01-11T03:07:57;20.77;;;11.02;;
80508;SDS011;69838;52.602;13.434;2024-01-11T03:08:42;16.20;;;8.85;;
80508;SDS011;69838;52.602;13.434;2024-01-11T03:09:28;19.92;;;9.88;;
80508;SDS011;69838;52.602;13.434;2024-01-11T03:10:16;17.92;;;9.52;;
80508;SDS011;69838;52.602;13.434;2024-01-11T03:11:01;25.27;;;10.35;;
80508;SDS011;69838;52.602;13.434;2024-01-11T03:11:47;18.83;;;9.00;;
80508;SDS011;69838;52.602;13.434;2024-01-11T03:12:33;19.00;;;8.82;;
80508;SDS011;69838;52.602;13.434;2024-01-11T03:13:19;20.55;;;10.57;;
80508;SDS011;69838;52.602;13.434;2024-01-11T03:14:05;21.63;;;10.95;;
80508;SDS011;69838;52.602;13.434;2024-01-11T03:14:50;20.73;;;10.30;;
80508;SDS011;69838;52.602;13.434;2024-01-11T03:15:36;25.73;;;10.13;;
80508;SDS011;69838;52.602;13.434;2024-01-11T03:16:22;21.67;;;10.27;;
80508;SDS011;69838;52.602;13.434;2024-01-11T03:17:08;19.95;;;9.82;;
80508;SDS011;69838;52.602;13.434;2024-01-11T03:17:53;25.55;;;11.23;;
80508;SDS011;69838;52.602;13.434;2024-01-11T03:18:39;30.80;;;12.93;;
80508;SDS011;69838;52.602;13.434;2024-01-11T03:19:25;20.35;;;10.27;;
80508;SDS011;69838;52.602;13.434;2024-01-11T03:20:12;21.08;;;8.10;;
80508;SDS011;69838;52.602;13.434;2024-01-11T03:20:58;19.10;;;8.63;;
80508;SDS011;69838;52.602;13.434;2024-01-11T03:21:44;23.60;;;10.75;;
80508;SDS011;69838;52.602;13.434;2024-01-11T03:22:31;19.38;;;10.20;;
80508;SDS011;69838;52.602;13.434;2024-01-11T03:23:17;27.90;;;11.25;;
80508;SDS011;69838;52.602;13.434;2024-01-11T03:24:02;24.42;;;10.45;;
80508;SDS011;69838;52.602;13.434;2024-01-11T03:24:48;23.02;;;10.15;;
80508;SDS011;69838;52.602;13.434;2024-01-11T03:25:36;21.77;;;8.93;;
80508;SDS011;69838;52.602;13.434;2024-01-11T03:26:23;24.85;;;10.95;;
80508;SDS011;69838;52.602;13.434;2024-01-11T03:27:09;26.48;;;11.40;;
80508;SDS011;69838;52.602;13.434;2024-01-11T03:27:54;22.42;;;11.25;;
80508;SDS011;69838;52.602;13.434;2024-01-11T03:28:40;21.38;;;9.73;;
80508;SDS011;69838;52.602;13.434;2024-01-11T03:29:26;22.48;;;9.35;;
80508;SDS011;69838;52.602;13.434;2024-01-11T03:30:12;23.60;;;9.30;;
80508;SDS011;69838;52.602;13.434;2024-01-11T03:30:59;26.60;;;11.18;;
80508;SDS011;69838;52.602;13.434;2024-01-11T03:31:45;24.40;;;11.73;;
80508;SDS011;69838;52.602;13.434;2024-01-11T03:32:30;29.73;;;12.05;;
80508;SDS011;69838;52.602;13.434;2024-01-11T03:33:17;23.58;;;13.02;;
80508;SDS011;69838;52.602;13.434;2024-01-11T03:34:02;26.17;;;9.75;;
80508;SDS011;69838;52.602;13.434;2024-01-11T03:34:47;25.10;;;10.38;;
80508;SDS011;69838;52.602;13.434;2024-01-11T03:35:34;25.85;;;10.82;;
80508;SDS011;69838;52.602;13.434;2024-01-11T03:36:22;26.92;;;10.48;;
80508;SDS011;69838;52.602;13.434;2024-01-11T03:37:09;25.35;;;10.30;;
80508;SDS011;69838;52.602;13.434;2024-01-11T03:37:55;23.15;;;8.93;;
80508;SDS011;69838;52.602;13.434;2024-01-11T03:38:41;24.33;;;11.15;;
80508;SDS011;69838;52.602;13.434;2024-01-11T03:39:26;25.70;;;8.02;;
80508;SDS011;69838;52.602;13.434;2024-01-11T03:40:13;26.90;;;10.00;;
80508;SDS011;69838;52.602;13.434;2024-01-11T03:41:00;24.27;;;9.93;;
80508;SDS011;69838;52.602;13.434;2024-01-11T03:41:46;26.52;;;9.82;;
80508;SDS011;69838;52.602;13.434;2024-01-11T03:42:32;25.23;;;9.98;;
80508;SDS011;69838;52.602;13.434;2024-01-11T03:43:17;30.10;;;11.10;;
80508;SDS011;69838;52.602;13.434;2024-01-11T03:44:03;23.48;;;9.57;;
80508;SDS011;69838;52.602;13.434;2024-01-11T03:44:49;24.95;;;11.02;;
80508;SDS011;69838;52.602;13.434;2024-01-11T03:45:35;23.63;;;8.15;;
80508;SDS011;69838;52.602;13.434;2024-01-11T03:46:20;28.08;;;10.55;;
80508;SDS011;69838;52.602;13.434;2024-01-11T03:47:06;26.08;;;9.98;;
80508;SDS011;69838;52.602;13.434;2024-01-11T03:47:52;27.55;;;9.98;;
80508;SDS011;69838;52.602;13.434;2024-01-11T03:48:37;25.70;;;10.77;;
80508;SDS011;69838;52.602;13.434;2024-01-11T03:49:23;27.08;;;10.00;;
80508;SDS011;69838;52.602;13.434;2024-01-11T03:50:09;24.92;;;9.93;;
80508;SDS011;69838;52.602;13.434;2024-01-11T03:50:55;29.73;;;10.48;;
80508;SDS011;69838;52.602;13.434;2024-01-11T03:51:41;24.23;;;10.80;;
80508;SDS011;69838;52.602;13.434;2024-01-11T03:52:27;26.58;;;10.30;;
80508;SDS011;69838;52.602;13.434;2024-01-11T03:53:13;24.02;;;9.73;;
80508;SDS011;69838;52.602;13.434;2024-01-11T03:53:59;28.38;;;9.45;;
80508;SDS011;69838;52.602;13.434;2024-01-11T03:54:45;31.80;;;10.30;;
80508;SDS011;69838;52.602;13.434;2024-01-11T03:55:30;23.88;;;10.05;;
80508;SDS011;69838;52.602;13.434;2024-01-11T03:56:18;26.23;;;11.43;;
80508;SDS011;69838;52.602;13.434;2024-01-11T03:57:04;27.48;;;11.45;;
80508;SDS011;69838;52.602;13.434;2024-01-11T03:57:50;31.20;;;11.38;;
80508;SDS011;69838;52.602;13.434;2024-01-11T03:58:37;23.83;;;10.27;;
80508;SDS011;69838;52.602;13.434;2024-01-11T03:59:24;28.27;;;10.88;;
80508;SDS011;69838;52.602;13.434;2024-01-11T04:00:10;23.10;;;8.57;;
80508;SDS011;69838;52.602;13.434;2024-01-11T04:00:56;27.08;;;10.07;;
80508;SDS011;69838;52.602;13.434;2024-01-11T04:01:42;24.65;;;11.23;;
80508;SDS011;69838;52.602;13.434;2024-01-11T04:02:28;29.30;;;10.38;;
80508;SDS011;69838;52.602;13.434;2024-01-11T04:03:14;26.15;;;9.93;;
80508;SDS011;69838;52.602;13.434;2024-01-11T04:04:00;26.10;;;8.95;;
80508;SDS011;69838;52.602;13.434;2024-01-11T04:04:46;21.15;;;9.02;;
80508;SDS011;69838;52.602;13.434;2024-01-11T04:05:31;21.77;;;9.35;;
80508;SDS011;69838;52.602;13.434;2024-01-11T04:06:18;24.15;;;10.27;;
80508;SDS011;69838;52.602;13.434;2024-01-11T04:07:06;27.15;;;11.57;;
80508;SDS011;69838;52.602;13.434;2024-01-11T04:07:51;25.27;;;9.90;;
80508;SDS011;69838;52.602;13.434;2024-01-11T04:08:38;26.42;;;10.65;;
80508;SDS011;69838;52.602;13.434;2024-01-11T04:09:23;24.15;;;10.38;;
80508;SDS011;69838;52.602;13.434;2024-01-11T04:10:09;27.83;;;9.77;;
80508;SDS011;69838;52.602;13.434;2024-01-11T04:10:55;25.50;;;10.63;;
80508;SDS011;69838;52.602;13.434;2024-01-11T04:11:42;25.90;;;10.07;;
80508;SDS011;69838;52.602;13.434;2024-01-11T04:12:28;25.35;;;10.30;;
80508;SDS011;69838;52.602;13.434;2024-01-11T04:13:14;28.58;;;10.85;;
80508;SDS011;69838;52.602;13.434;2024-01-11T04:13:59;31.13;;;11.07;;
80508;SDS011;69838;52.602;13.434;2024-01-11T04:14:45;26.30;;;10.32;;
80508;SDS011;69838;52.602;13.434;2024-01-11T04:15:31;28.27;;;11.00;;
80508;SDS011;69838;52.602;13.434;2024-01-11T04:16:17;25.98;;;11.90;;
80508;SDS011;69838;52.602;13.434;2024-01-11T04:17:02;25.33;;;10.75;;
80508;SDS011;69838;52.602;13.434;2024-01-11T04:17:49;27.33;;;10.95;;
80508;SDS011;69838;52.602;13.434;2024-01-11T04:18:34;23.20;;;9.80;;
80508;SDS011;69838;52.602;13.434;2024-01-11T04:19:20;29.27;;;12.57;;
80508;SDS011;69838;52.602;13.434;2024-01-11T04:20:07;27.33;;;10.52;;
80508;SDS011;69838;52.602;13.434;2024-01-11T04:20:53;25.73;;;9.95;;
80508;SDS011;69838;52.602;13.434;2024-01-11T04:21:38;27.05;;;10.88;;
80508;SDS011;69838;52.602;13.434;2024-01-11T04:22:25;28.88;;;11.93;;
80508;SDS011;69838;52.602;13.434;2024-01-11T04:23:13;23.80;;;9.85;;
80508;SDS011;69838;52.602;13.434;2024-01-11T04:23:58;27.88;;;10.95;;
80508;SDS011;69838;52.602;13.434;2024-01-11T04:24:45;25.90;;;11.43;;
80508;SDS011;69838;52.602;13.434;2024-01-11T04:25:30;26.42;;;11.30;;
80508;SDS011;69838;52.602;13.434;2024-01-11T04:26:16;30.85;;;11.85;;
80508;SDS011;69838;52.602;13.434;2024-01-11T04:27:03;31.48;;;9.35;;